Time;durP1;ratioP1;P1;durP2;ratioP2;P2;SDS_P1;SDS_P2;PMS_P1;PMS_P2;Temp;Humidity;BMP_temperature;BMP_pressure;BME280_temperature;BME280_humidity;BME280_pressure;Samples;Min_cycle;Max_cycle;Signal;HPM_P1;HPM_P2
2023/06/16 00:01:31;;;;;;;8.47;7.73;;;;;;;11.62;100.00;96945.44;4915055;28;20262;-66
2023/06/16 00:03:59;;;;;;;8.53;7.40;;;;;;;11.54;100.00;96949.06;4926849;28;20211;-68
2023/06/16 00:06:29;;;;;;;7.30;6.80;;;;;;;11.48;100.00;96954.38;4901416;28;20222;-66
2023/06/16 00:08:58;;;;;;;7.83;7.20;;;;;;;11.42;100.00;96954.13;4917155;28;20741;-67
2023/06/16 00:11:28;;;;;;;8.33;7.73;;;;;;;11.36;100.00;96946.13;4902180;28;20880;-66
2023/06/16 00:13:56;;;;;;;7.20;6.77;;;;;;;11.33;100.00;96951.81;4907094;28;20215;-65
2023/06/16 00:16:26;;;;;;;8.53;7.63;;;;;;;11.23;100.00;96942.38;4929861;28;20319;-66
2023/06/16 00:18:57;;;;;;;7.77;7.23;;;;;;;11.16;100.00;96933.53;4898531;28;20237;-67
2023/06/16 00:21:27;;;;;;;9.00;8.40;;;;;;;11.03;100.00;96925.50;4901177;28;20600;-66
2023/06/16 00:23:55;;;;;;;8.20;7.50;;;;;;;11.04;100.00;96935.09;4912689;28;20210;-66
2023/06/16 00:26:23;;;;;;;8.63;8.03;;;;;;;10.98;100.00;96926.91;4906221;28;20243;-68
2023/06/16 00:28:51;;;;;;;8.50;7.80;;;;;;;10.94;100.00;96923.00;4909733;28;20572;-68
2023/06/16 00:31:18;;;;;;;8.07;7.57;;;;;;;10.90;100.00;96918.28;4902746;28;20294;-67
2023/06/16 00:33:46;;;;;;;8.87;8.27;;;;;;;10.84;100.00;96919.88;4912693;28;20385;-65
2023/06/16 00:36:15;;;;;;;8.50;7.87;;;;;;;10.81;100.00;96929.03;4930710;28;20389;-65
2023/06/16 00:38:42;;;;;;;8.37;7.87;;;;;;;10.82;100.00;96920.06;4885655;28;20274;-67
2023/06/16 00:41:10;;;;;;;7.67;7.17;;;;;;;10.83;100.00;96932.31;4910500;28;20532;-66
2023/06/16 00:43:38;;;;;;;8.37;7.77;;;;;;;10.78;100.00;96934.72;4911175;28;20314;-67
2023/06/16 00:46:06;;;;;;;9.13;8.33;;;;;;;10.77;100.00;96943.66;4904110;28;21303;-66
2023/06/16 00:48:34;;;;;;;7.83;7.23;;;;;;;10.76;100.00;96946.50;4906273;28;20263;-68
2023/06/16 00:51:02;;;;;;;7.97;7.37;;;;;;;10.59;100.00;96933.53;4931652;28;20199;-67
2023/06/16 00:53:32;;;;;;;8.07;7.50;;;;;;;10.63;100.00;96945.38;4886575;28;20223;-67
2023/06/16 00:55:59;;;;;;;8.70;8.00;;;;;;;10.59;100.00;96943.28;4918231;28;20278;-66
2023/06/16 00:58:28;;;;;;;8.23;7.63;;;;;;;10.59;100.00;96940.63;4907823;28;20329;-66
2023/06/16 01:00:55;;;;;;;8.67;7.97;;;;;;;10.44;100.00;96928.28;4919837;28;20301;-66
2023/06/16 01:03:23;;;;;;;8.30;7.60;;;;;;;10.49;100.00;96940.97;4923623;28;20456;-66
2023/06/16 01:05:54;;;;;;;8.37;7.80;;;;;;;10.42;100.00;96936.44;4905567;28;20233;-67
2023/06/16 01:08:26;;;;;;;8.67;8.07;;;;;;;10.42;100.00;96946.19;4881244;28;20627;-66
2023/06/16 01:11:02;;;;;;;7.53;7.03;;;;;;;10.41;100.00;96944.56;4925517;28;20200;-66
2023/06/16 01:13:36;;;;;;;7.93;7.33;;;;;;;10.36;100.00;96947.72;4934173;28;20266;-66
2023/06/16 01:16:04;;;;;;;8.17;7.57;;;;;;;10.24;100.00;96936.00;4903010;28;20295;-65
2023/06/16 01:18:32;;;;;;;8.20;7.50;;;;;;;10.29;100.00;96944.22;4932653;28;20222;-66
2023/06/16 01:21:03;;;;;;;8.37;7.77;;;;;;;10.27;100.00;96938.28;4906859;28;20309;-66
2023/06/16 01:23:50;;;;;;;8.33;7.73;;;;;;;10.26;100.00;96939.28;4881025;28;20758;-67
2023/06/16 01:26:22;;;;;;;8.67;7.97;;;;;;;10.10;100.00;96943.81;4927554;28;20477;-66
2023/06/16 01:28:50;;;;;;;8.03;7.47;;;;;;;10.03;100.00;96931.50;4902946;28;20322;-66
2023/06/16 01:31:21;;;;;;;8.27;7.67;;;;;;;10.10;100.00;96935.03;4927848;28;20381;-66
2023/06/16 01:33:49;;;;;;;8.83;8.13;;;;;;;10.06;100.00;96937.25;4906889;28;20215;-65
2023/06/16 01:36:18;;;;;;;8.57;7.77;;;;;;;10.02;100.00;96941.25;4918908;28;20272;-65
2023/06/16 01:38:47;;;;;;;7.70;7.20;;;;;;;9.97;100.00;96944.47;4885808;28;20235;-67
2023/06/16 01:41:16;;;;;;;7.97;7.37;;;;;;;9.93;100.00;96945.88;4930425;28;20314;-67
2023/06/16 01:43:45;;;;;;;8.30;7.70;;;;;;;9.81;100.00;96939.38;4914179;28;20330;-67
2023/06/16 01:46:13;;;;;;;8.90;7.90;;;;;;;9.73;100.00;96924.47;4932238;28;20337;-67
2023/06/16 01:48:45;;;;;;;8.23;7.63;;;;;;;9.85;100.00;96936.19;4912108;28;20714;-66
2023/06/16 01:51:13;;;;;;;8.53;7.87;;;;;;;9.85;100.00;96936.19;4907435;28;20301;-68
2023/06/16 01:53:41;;;;;;;8.73;8.13;;;;;;;9.83;100.00;96940.84;4932806;28;20239;-66
2023/06/16 01:56:11;;;;;;;8.40;7.67;;;;;;;9.83;100.00;96940.03;4883991;28;20211;-67
2023/06/16 01:58:39;;;;;;;8.37;7.77;;;;;;;9.71;100.00;96918.53;4920580;28;20258;-68
2023/06/16 02:01:11;;;;;;;8.73;7.90;;;;;;;9.76;100.00;96933.84;4931109;28;20223;-67
2023/06/16 02:03:47;;;;;;;8.37;7.77;;;;;;;9.66;100.00;96932.31;4905522;28;20877;-67
2023/06/16 02:06:18;;;;;;;8.87;8.17;;;;;;;9.61;100.00;96934.69;4909580;28;20218;-67
2023/06/16 02:08:48;;;;;;;8.47;7.87;;;;;;;9.53;100.00;96930.31;4926809;28;20717;-66
2023/06/16 02:11:16;;;;;;;9.03;8.33;;;;;;;9.46;100.00;96933.84;4892851;28;20211;-67
2023/06/16 02:13:44;;;;;;;9.17;8.37;;;;;;;9.38;100.00;96930.31;4935971;28;20678;-65
2023/06/16 02:16:13;;;;;;;8.37;7.80;;;;;;;9.37;100.00;96933.16;4879628;28;20328;-65
2023/06/16 02:18:40;;;;;;;9.80;8.30;;;;;;;9.32;100.00;96928.41;4908487;28;20261;-66
2023/06/16 02:21:08;;;;;;;9.13;8.43;;;;;;;9.32;100.00;96932.88;4902189;28;20239;-67
2023/06/16 02:23:36;;;;;;;8.70;8.10;;;;;;;9.27;100.00;96926.28;4929825;28;20207;-66
2023/06/16 02:26:03;;;;;;;9.70;9.00;;;;;;;9.24;100.00;96933.78;4880970;28;20714;-67
2023/06/16 02:28:31;;;;;;;9.87;9.07;;;;;;;9.20;100.00;96930.66;4935132;28;20254;-67
2023/06/16 02:30:58;;;;;;;9.33;8.63;;;;;;;9.19;100.00;96933.50;4905490;28;20833;-67
2023/06/16 02:33:28;;;;;;;10.37;9.57;;;;;;;9.18;100.00;96934.50;4933984;28;20203;-65
2023/06/16 02:35:56;;;;;;;10.07;8.73;;;;;;;9.14;100.00;96938.53;4889133;28;20916;-67
2023/06/16 02:38:24;;;;;;;9.97;9.27;;;;;;;9.09;100.00;96933.75;4932850;28;20259;-66
2023/06/16 02:40:51;;;;;;;10.53;9.73;;;;;;;9.02;100.00;96938.94;4880580;28;20562;-66
2023/06/16 02:43:19;;;;;;;10.93;10.00;;;;;;;9.03;100.00;96937.13;4935397;28;20223;-67
2023/06/16 02:45:47;;;;;;;10.73;9.83;;;;;;;8.92;100.00;96926.00;4908748;28;20537;-66
2023/06/16 02:48:15;;;;;;;10.30;9.57;;;;;;;8.94;100.00;96939.84;4929941;28;21118;-67
2023/06/16 02:50:44;;;;;;;10.13;9.20;;;;;;;8.89;100.00;96939.53;4904741;28;20886;-65
2023/06/16 02:53:13;;;;;;;9.60;8.90;;;;;;;8.85;100.00;96940.09;4909237;28;20301;-66
2023/06/16 02:55:43;;;;;;;9.67;8.77;;;;;;;8.82;100.00;96939.47;4901654;28;20215;-65
2023/06/16 02:58:11;;;;;;;9.57;8.87;;;;;;;8.85;100.00;96940.91;4924267;28;20260;-65
2023/06/16 03:00:39;;;;;;;10.37;9.53;;;;;;;8.77;100.00;96936.53;4918425;28;20206;-65
2023/06/16 03:03:09;;;;;;;9.53;8.80;;;;;;;8.75;100.00;96945.63;4931060;28;20243;-66
2023/06/16 03:05:37;;;;;;;10.10;9.30;;;;;;;8.74;100.00;96944.00;4901543;28;20207;-66
2023/06/16 03:08:06;;;;;;;9.20;8.60;;;;;;;8.71;100.00;96934.59;4909399;28;20266;-64
2023/06/16 03:10:33;;;;;;;9.27;8.63;;;;;;;8.71;100.00;96941.69;4929844;28;20306;-65
2023/06/16 03:13:01;;;;;;;10.20;9.20;;;;;;;8.73;100.00;96929.13;4856264;28;20218;-65
2023/06/16 03:15:30;;;;;;;9.87;9.10;;;;;;;8.70;100.00;96922.38;4917595;28;20302;-65
2023/06/16 03:17:58;;;;;;;9.33;8.63;;;;;;;8.72;100.00;96930.13;4927116;28;20227;-65
2023/06/16 03:20:29;;;;;;;9.83;9.03;;;;;;;8.79;100.00;96931.06;4902248;28;20674;-67
2023/06/16 03:22:57;;;;;;;10.00;9.30;;;;;;;8.81;100.00;96929.91;4933264;28;20251;-67
2023/06/16 03:25:26;;;;;;;10.20;9.40;;;;;;;8.77;100.00;96914.56;4884874;28;20210;-65
2023/06/16 03:31:42;;;;;;;9.00;8.40;;;;;;;8.88;100.00;96929.97;4905871;28;20807;-62
2023/06/16 03:34:10;;;;;;;9.60;8.90;;;;;;;8.95;100.00;96933.56;4896506;28;20891;-64
2023/06/16 03:36:51;;;;;;;9.27;8.60;;;;;;;8.98;100.00;96935.84;4929292;28;20440;-64
2023/06/16 03:39:19;;;;;;;10.43;9.63;;;;;;;8.94;100.00;96929.28;4949638;28;20253;-64
2023/06/16 03:41:48;;;;;;;8.80;8.10;;;;;;;9.01;100.00;96934.66;4919861;28;20262;-64
2023/06/16 03:44:16;;;;;;;8.53;7.83;;;;;;;9.04;100.00;96938.78;4908259;28;20250;-63
2023/06/16 03:46:43;;;;;;;8.70;8.10;;;;;;;9.00;100.00;96934.84;4903010;28;20218;-65
2023/06/16 03:49:11;;;;;;;10.00;9.20;;;;;;;9.11;100.00;96944.97;4913533;28;20859;-64
2023/06/16 03:51:39;;;;;;;9.57;8.87;;;;;;;9.18;100.00;96947.72;4916645;28;20759;-66
2023/06/16 03:54:07;;;;;;;9.60;8.90;;;;;;;9.26;100.00;96950.28;4955092;28;20302;-65
2023/06/16 03:56:36;;;;;;;10.17;9.27;;;;;;;9.30;100.00;96945.47;4935899;28;20221;-64
2023/06/16 03:59:05;;;;;;;10.50;9.50;;;;;;;9.40;100.00;96946.00;4922630;28;20725;-64
2023/06/16 04:01:36;;;;;;;9.83;9.17;;;;;;;9.41;100.00;96945.81;4903849;28;20810;-63
2023/06/16 04:04:05;;;;;;;10.57;9.77;;;;;;;9.43;100.00;96950.91;4926490;28;20226;-63
2023/06/16 04:06:34;;;;;;;9.83;8.97;;;;;;;9.47;100.00;96944.25;4896776;28;20344;-65
2023/06/16 04:09:02;;;;;;;9.90;9.20;;;;;;;9.60;100.00;96948.09;4945440;28;20559;-64
2023/06/16 04:11:31;;;;;;;9.83;9.10;;;;;;;9.65;100.00;96937.75;4934310;28;20225;-65
2023/06/16 04:13:59;;;;;;;10.00;9.07;;;;;;;9.76;100.00;96947.06;4926720;28;20953;-64
2023/06/16 04:16:28;;;;;;;10.37;9.33;;;;;;;9.91;100.00;96949.69;4930531;28;20243;-64
2023/06/16 04:18:56;;;;;;;9.67;8.83;;;;;;;10.03;100.00;96942.09;4934852;28;20234;-63
2023/06/16 04:21:23;;;;;;;10.97;10.03;;;;;;;10.16;100.00;96944.06;4914276;28;20268;-62
2023/06/16 04:23:51;;;;;;;10.50;9.50;;;;;;;10.30;100.00;96948.50;4954936;28;20819;-63
2023/06/16 04:26:22;;;;;;;10.43;9.63;;;;;;;10.46;100.00;96936.06;4945917;28;20199;-61
2023/06/16 04:28:55;;;;;;;10.60;9.80;;;;;;;10.60;100.00;96940.47;4900754;28;20241;-64
2023/06/16 04:31:28;;;;;;;9.67;8.97;;;;;;;10.66;100.00;96928.28;4924316;28;20398;-67
2023/06/16 04:33:58;;;;;;;10.90;9.57;;;;;;;10.71;100.00;96936.50;4913504;28;20912;-62
2023/06/16 04:36:29;;;;;;;19.47;9.97;;;;;;;10.80;100.00;96932.69;4911880;28;21488;-65
2023/06/16 04:38:57;;;;;;;23.83;10.87;;;;;;;10.97;100.00;96937.69;4952185;28;20245;-65
2023/06/16 04:41:25;;;;;;;36.50;12.63;;;;;;;11.11;100.00;96938.63;4949846;28;20230;-66
2023/06/16 04:43:53;;;;;;;20.43;9.77;;;;;;;11.36;100.00;96938.97;4932926;28;20853;-64
2023/06/16 04:46:21;;;;;;;15.70;9.77;;;;;;;11.49;100.00;96932.94;4912245;28;20807;-64
2023/06/16 04:48:49;;;;;;;9.23;8.53;;;;;;;11.68;100.00;96938.56;4952810;28;21157;-66
2023/06/16 04:51:18;;;;;;;9.70;9.00;;;;;;;11.81;100.00;96938.59;4936102;28;20745;-65
2023/06/16 04:53:46;;;;;;;8.97;8.17;;;;;;;11.95;100.00;96931.50;4905732;28;20317;-65
2023/06/16 04:56:13;;;;;;;8.20;7.60;;;;;;;12.12;100.00;96929.34;4951717;28;20226;-63
2023/06/16 04:58:41;;;;;;;9.57;8.77;;;;;;;12.32;100.00;96927.75;4953271;28;20321;-66
2023/06/16 05:01:09;;;;;;;8.67;8.07;;;;;;;12.55;100.00;96930.88;4926956;28;20280;-65
2023/06/16 05:03:36;;;;;;;9.10;8.40;;;;;;;12.76;100.00;96928.22;4929215;28;20579;-65
2023/06/16 05:06:05;;;;;;;10.10;9.30;;;;;;;12.71;100.00;96931.50;4937893;28;20669;-66
2023/06/16 05:08:33;;;;;;;10.30;9.60;;;;;;;12.57;100.00;96936.81;4914822;28;20317;-64
2023/06/16 05:11:02;;;;;;;10.60;9.70;;;;;;;12.65;100.00;96937.63;4948138;28;20791;-65
2023/06/16 05:13:30;;;;;;;9.83;9.03;;;;;;;12.90;100.00;96932.50;4953151;28;20230;-66
2023/06/16 05:15:57;;;;;;;9.30;8.63;;;;;;;13.18;100.00;96923.50;4907465;28;20214;-66
2023/06/16 05:18:25;;;;;;;9.83;9.03;;;;;;;13.26;100.00;96920.63;4912168;28;20610;-65
2023/06/16 05:20:53;;;;;;;9.77;8.97;;;;;;;13.59;100.00;96924.25;4923391;28;20229;-65
2023/06/16 05:23:20;;;;;;;10.00;9.03;;;;;;;13.79;100.00;96918.03;4913893;28;22970;-63
2023/06/16 05:25:50;;;;;;;10.03;9.07;;;;;;;13.72;100.00;96921.56;4957524;28;20217;-64
2023/06/16 05:28:17;;;;;;;9.20;8.50;;;;;;;13.72;100.00;96916.22;4943911;28;20327;-65
2023/06/16 05:30:45;;;;;;;10.13;9.33;;;;;;;13.91;100.00;96915.53;4949127;28;20218;-65
2023/06/16 05:33:13;;;;;;;9.97;9.27;;;;;;;13.93;100.00;96913.47;4895405;28;20967;-64
2023/06/16 05:35:41;;;;;;;9.43;8.73;;;;;;;14.12;100.00;96914.41;4945290;28;20233;-63
2023/06/16 05:38:08;;;;;;;9.93;9.10;;;;;;;14.16;100.00;96916.41;4935927;28;20260;-62
2023/06/16 05:40:36;;;;;;;10.53;9.53;;;;;;;14.39;100.00;96919.56;4913288;28;20837;-64
2023/06/16 05:43:05;;;;;;;9.63;8.93;;;;;;;14.62;100.00;96919.03;4953919;28;20700;-63
2023/06/16 05:45:33;;;;;;;10.27;9.27;;;;;;;14.58;100.00;96915.97;4950504;28;20306;-63
2023/06/16 05:48:00;;;;;;;9.53;8.77;;;;;;;14.87;100.00;96915.56;4914244;28;20236;-63
2023/06/16 05:50:29;;;;;;;9.77;8.93;;;;;;;15.12;100.00;96912.88;4928642;28;20905;-64
2023/06/16 05:52:57;;;;;;;10.40;9.60;;;;;;;15.21;100.00;96918.75;4935304;28;20210;-63
2023/06/16 05:55:24;;;;;;;11.67;9.70;;;;;;;15.37;100.00;96920.03;4892174;28;20224;-63
2023/06/16 05:57:52;;;;;;;9.60;8.80;;;;;;;15.49;100.00;96912.91;4952215;28;20852;-62
2023/06/16 06:00:21;;;;;;;9.40;8.70;;;;;;;15.42;100.00;96919.38;4951035;28;20828;-64
2023/06/16 06:02:50;;;;;;;8.93;8.23;;;;;;;15.49;100.00;96922.78;4895151;28;20574;-63
2023/06/16 06:05:18;;;;;;;11.50;9.17;;;;;;;15.39;100.00;96925.97;4933465;28;20240;-64
2023/06/16 06:07:46;;;;;;;21.23;19.30;;;;;;;15.69;100.00;96925.25;4925199;28;20237;-62
2023/06/16 06:10:14;;;;;;;24.03;21.63;;;;;;;15.88;100.00;96926.06;4909151;28;20297;-64
2023/06/16 06:12:42;;;;;;;10.23;9.40;;;;;;;16.13;100.00;96927.00;4957305;28;20377;-63
2023/06/16 06:15:11;;;;;;;8.90;8.00;;;;;;;16.38;100.00;96926.84;4953762;28;20210;-63
2023/06/16 06:17:40;;;;;;;7.77;7.17;;;;;;;16.51;100.00;96920.50;4933046;28;20249;-63
2023/06/16 06:20:10;;;;;;;7.90;7.20;;;;;;;16.76;100.00;96928.34;4900027;28;20666;-62
2023/06/16 06:22:37;;;;;;;7.77;7.07;;;;;;;16.64;100.00;96939.00;4941053;28;20214;-63
2023/06/16 06:25:06;;;;;;;7.43;6.63;;;;;;;16.78;100.00;96936.16;4892284;28;20313;-63
2023/06/16 06:27:34;;;;;;;8.00;7.33;;;;;;;16.98;100.00;96937.72;4956579;28;20214;-63
2023/06/16 06:30:02;;;;;;;7.77;7.17;;;;;;;17.00;100.00;96936.44;4950910;28;20210;-64
2023/06/16 06:32:29;;;;;;;7.67;7.07;;;;;;;17.03;100.00;96925.28;4929586;28;20301;-63
2023/06/16 06:34:58;;;;;;;7.37;6.87;;;;;;;17.26;100.00;96928.19;4926701;28;20210;-64
2023/06/16 06:37:30;;;;;;;8.00;7.40;;;;;;;17.09;100.00;96928.91;4938448;28;20276;-64
2023/06/16 06:39:58;;;;;;;8.93;8.03;;;;;;;17.47;100.00;96924.09;4934646;28;20369;-65
2023/06/16 06:42:26;;;;;;;11.53;10.43;;;;;;;17.38;100.00;96923.63;4907159;28;20217;-65
2023/06/16 06:44:54;;;;;;;7.80;7.30;;;;;;;17.47;100.00;96932.13;4950746;28;20226;-65
2023/06/16 06:47:22;;;;;;;7.57;6.87;;;;;;;17.38;100.00;96934.34;4933907;28;20603;-64
2023/06/16 06:49:50;;;;;;;6.87;6.37;;;;;;;17.61;100.00;96930.81;4926620;28;20321;-65
2023/06/16 06:52:19;;;;;;;6.93;6.33;;;;;;;17.76;100.00;96932.22;4937743;28;20771;-63
2023/06/16 06:54:47;;;;;;;6.67;6.13;;;;;;;18.05;100.00;96925.03;4938495;28;20265;-63
2023/06/16 06:57:15;;;;;;;6.33;5.83;;;;;;;18.07;100.00;96927.50;4912076;28;21407;-63
2023/06/16 06:59:43;;;;;;;6.40;5.90;;;;;;;18.13;100.00;96936.44;4950728;28;22294;-63
2023/06/16 07:02:10;;;;;;;11.80;6.57;;;;;;;18.53;100.00;96940.94;4945838;28;20963;-64
2023/06/16 07:04:39;;;;;;;8.30;7.00;;;;;;;18.58;100.00;96943.72;4904272;28;20858;-63
2023/06/16 07:07:08;;;;;;;8.10;6.23;;;;;;;18.79;100.00;96942.19;4956650;28;20203;-64
2023/06/16 07:09:37;;;;;;;7.77;7.17;;;;;;;19.01;100.00;96938.81;4901205;28;20693;-63
2023/06/16 07:12:07;;;;;;;10.77;6.13;;;;;;;19.26;100.00;96953.69;4950906;28;20261;-65
2023/06/16 07:14:35;;;;;;;8.73;5.97;;;;;;;19.47;100.00;96940.53;4918396;28;20436;-63
2023/06/16 07:17:03;;;;;;;10.83;6.27;;;;;;;19.57;96.17;96942.56;4953234;28;20221;-63
2023/06/16 07:19:30;;;;;;;11.30;7.30;;;;;;;19.92;97.94;96933.38;4920554;28;20265;-61
2023/06/16 07:22:00;;;;;;;7.63;6.33;;;;;;;20.25;89.19;96936.97;4956501;28;20210;-64
2023/06/16 07:24:28;;;;;;;6.20;5.60;;;;;;;20.03;88.41;96935.09;4914840;28;20689;-62
2023/06/16 07:26:59;;;;;;;6.83;6.23;;;;;;;20.18;85.42;96937.16;4950980;28;20241;-64
2023/06/16 07:29:27;;;;;;;6.43;5.93;;;;;;;20.45;80.97;96938.22;4902916;28;20238;-64
2023/06/16 07:31:55;;;;;;;6.53;5.73;;;;;;;20.90;80.88;96941.63;4952437;28;20221;-62
2023/06/16 07:34:23;;;;;;;6.50;5.90;;;;;;;21.33;77.02;96930.91;4951350;28;20201;-63
2023/06/16 07:36:51;;;;;;;6.33;5.73;;;;;;;20.88;74.42;96944.59;4929074;28;20240;-65
2023/06/16 07:39:21;;;;;;;6.87;5.77;;;;;;;20.44;76.72;96947.38;4936278;28;20285;-64
2023/06/16 07:41:48;;;;;;;5.57;5.07;;;;;;;19.83;78.46;96932.16;4933084;28;20214;-63
2023/06/16 07:44:17;;;;;;;5.33;4.80;;;;;;;20.00;76.79;96957.13;4911449;28;20799;-64
2023/06/16 07:46:45;;;;;;;5.07;4.63;;;;;;;19.89;82.53;96948.09;4950137;28;21890;-64
2023/06/16 07:49:13;;;;;;;7.00;4.97;;;;;;;19.48;84.33;96944.84;4954047;28;20253;-63
2023/06/16 07:51:42;;;;;;;8.23;5.40;;;;;;;19.64;85.38;96945.88;4926584;28;20213;-63
2023/06/16 07:54:10;;;;;;;6.73;6.13;;;;;;;19.64;98.66;96937.81;4948354;28;20970;-63
2023/06/16 07:56:38;;;;;;;7.50;6.83;;;;;;;19.75;100.00;96934.22;4919123;28;20552;-65
2023/06/16 07:59:07;;;;;;;7.80;7.10;;;;;;;20.01;98.59;96939.13;4950591;28;20280;-65
2023/06/16 08:01:38;;;;;;;8.83;8.03;;;;;;;20.13;95.81;96930.94;4912406;28;20400;-64
2023/06/16 08:04:06;;;;;;;7.97;7.27;;;;;;;20.01;94.11;96928.38;4953402;28;20198;-63
2023/06/16 08:06:34;;;;;;;6.57;6.07;;;;;;;19.91;91.07;96942.50;4952239;28;20392;-63
2023/06/16 08:09:02;;;;;;;7.10;6.60;;;;;;;19.73;95.07;96947.09;4926928;28;20226;-64
2023/06/16 08:11:31;;;;;;;7.63;7.00;;;;;;;19.92;95.11;96938.75;4932873;28;20668;-63
2023/06/16 08:13:59;;;;;;;8.07;7.47;;;;;;;20.18;93.40;96941.75;4936138;28;20296;-65
2023/06/16 08:16:26;;;;;;;7.67;6.97;;;;;;;20.39;94.42;96940.88;4905686;28;20229;-64
2023/06/16 08:18:57;;;;;;;8.13;7.60;;;;;;;20.28;93.04;96935.66;4950355;28;20217;-62
2023/06/16 08:21:25;;;;;;;7.93;7.13;;;;;;;20.61;91.59;96931.94;4953114;28;20276;-64
2023/06/16 08:23:53;;;;;;;9.07;8.27;;;;;;;20.94;86.11;96937.34;4924345;28;21396;-64
2023/06/16 08:26:21;;;;;;;7.10;6.30;;;;;;;;;;4909949;28;20230;-63
2023/06/16 08:28:50;;;;;;;8.87;6.30;;;;;;;20.89;81.55;96934.63;4933235;28;20325;-62
2023/06/16 08:31:18;;;;;;;8.20;6.23;;;;;;;20.92;83.11;96934.94;4903786;28;20221;-65
2023/06/16 08:33:46;;;;;;;6.30;5.60;;;;;;;21.19;79.54;96928.66;4934749;28;20210;-65
2023/06/16 08:36:15;;;;;;;5.77;5.37;;;;;;;21.76;77.11;96917.41;4953582;28;20806;-64
2023/06/16 08:38:43;;;;;;;6.17;5.57;;;;;;;22.02;69.58;96922.91;4903475;28;20911;-65
2023/06/16 08:41:11;;;;;;;5.33;4.93;;;;;;;22.00;66.51;96909.72;4938962;28;20210;-63
2023/06/16 08:43:38;;;;;;;6.30;5.90;;;;;;;22.17;66.91;96919.47;4949434;28;20686;-62
2023/06/16 08:46:08;;;;;;;6.13;4.97;;;;;;;22.09;66.43;96907.28;4927132;28;20348;-66
2023/06/16 08:48:37;;;;;;;6.40;5.80;;;;;;;22.38;63.34;96918.44;4905313;28;20230;-64
2023/06/16 08:51:06;;;;;;;6.87;5.20;;;;;;;22.54;60.46;96913.91;4960053;28;20206;-65
2023/06/16 08:53:36;;;;;;;7.23;5.53;;;;;;;22.58;59.13;96908.78;4955874;28;20207;-62
2023/06/16 08:56:07;;;;;;;5.93;5.30;;;;;;;22.65;58.72;96913.91;4921996;28;20238;-64
2023/06/16 08:58:36;;;;;;;5.73;5.23;;;;;;;23.35;58.43;96905.25;4946645;28;20729;-63
2023/06/16 09:01:04;;;;;;;4.73;4.43;;;;;;;23.79;57.75;96916.47;4929458;28;20756;-64
2023/06/16 09:03:32;;;;;;;5.50;5.10;;;;;;;23.58;52.54;96918.44;4905392;28;20348;-63
2023/06/16 09:06:01;;;;;;;5.43;5.03;;;;;;;22.84;54.71;96912.28;4955304;28;20250;-64
2023/06/16 09:08:29;;;;;;;5.60;5.10;;;;;;;22.24;56.17;96910.03;4954477;28;20457;-62
2023/06/16 09:10:58;;;;;;;5.90;5.40;;;;;;;22.17;58.88;96916.75;4930859;28;20328;-66
2023/06/16 09:13:28;;;;;;;8.03;5.47;;;;;;;21.93;58.68;96909.94;4936001;28;20257;-64
2023/06/16 09:15:56;;;;;;;5.73;5.27;;;;;;;21.67;60.69;96914.44;4937295;28;20759;-62
2023/06/16 09:18:26;;;;;;;6.00;5.50;;;;;;;21.45;63.31;96919.94;4891892;28;20836;-63
2023/06/16 09:20:54;;;;;;;6.70;5.10;;;;;;;21.09;61.89;96910.56;4960189;28;20342;-62
2023/06/16 09:23:29;;;;;;;6.37;5.70;;;;;;;20.85;62.16;96909.28;4955439;28;20202;-63
2023/06/16 09:25:58;;;;;;;6.03;5.47;;;;;;;20.60;64.96;96913.34;4927666;28;20228;-65
2023/06/16 09:28:37;;;;;;;6.23;5.83;;;;;;;20.35;63.65;96904.00;4932047;28;20352;-60
2023/06/16 09:31:06;;;;;;;5.43;4.93;;;;;;;20.37;67.07;96899.97;4937375;28;20265;-64
2023/06/16 09:33:40;;;;;;;5.17;4.80;;;;;;;20.52;66.81;96903.88;4918739;28;20300;-62
2023/06/16 09:36:08;;;;;;;5.97;5.47;;;;;;;20.61;66.19;96896.97;4940408;28;20209;-64
2023/06/16 09:38:36;;;;;;;6.60;5.73;;;;;;;20.79;66.44;96895.78;4954442;28;20325;-64
2023/06/16 09:41:09;;;;;;;5.00;4.70;;;;;;;20.85;64.05;96895.84;4921362;28;20222;-64
2023/06/16 09:43:38;;;;;;;5.87;5.27;;;;;;;21.05;59.68;96890.59;4940277;28;20210;-64
2023/06/16 09:46:10;;;;;;;6.03;4.93;;;;;;;21.14;58.38;96890.13;4936106;28;20508;-66
2023/06/16 09:48:45;;;;;;;4.97;4.47;;;;;;;21.34;59.66;96881.34;4911099;28;20713;-63
2023/06/16 09:51:17;;;;;;;6.10;5.13;;;;;;;21.15;57.74;96886.34;4935780;28;20222;-64
2023/06/16 09:53:45;;;;;;;6.13;4.93;;;;;;;21.23;57.61;96889.38;4955034;28;20202;-62
2023/06/16 09:56:15;;;;;;;5.30;4.80;;;;;;;21.36;60.92;96874.59;4920508;28;20731;-64
2023/06/16 09:58:43;;;;;;;4.97;4.57;;;;;;;21.49;58.75;96873.34;4955731;28;20230;-64
2023/06/16 10:01:13;;;;;;;5.33;4.93;;;;;;;21.59;56.37;96879.84;4917155;28;20269;-66
2023/06/16 10:03:43;;;;;;;5.30;4.50;;;;;;;21.29;53.85;96875.94;4899363;28;20964;-66
2023/06/16 10:06:15;;;;;;;6.73;6.13;;;;;;;21.69;54.75;96874.53;4935419;28;20284;-64
2023/06/16 10:08:43;;;;;;;4.77;4.37;;;;;;;21.69;53.30;96883.41;4938518;28;20657;-65
2023/06/16 10:11:13;;;;;;;5.27;4.87;;;;;;;21.72;53.34;96875.88;4929260;28;20267;-64
2023/06/16 10:13:42;;;;;;;5.13;4.63;;;;;;;21.57;53.17;96874.72;4947630;28;20261;-65
2023/06/16 10:16:11;;;;;;;4.77;4.40;;;;;;;21.28;50.95;96875.09;4917503;28;20312;-63
2023/06/16 10:18:41;;;;;;;4.60;4.30;;;;;;;21.20;49.09;96864.84;4935819;28;20226;-64
2023/06/16 10:21:10;;;;;;;5.23;4.50;;;;;;;21.27;49.63;96870.78;4921494;28;20297;-62
2023/06/16 10:23:37;;;;;;;4.77;4.40;;;;;;;21.65;48.46;96868.06;4954576;28;20249;-63
2023/06/16 10:26:06;;;;;;;4.83;4.47;;;;;;;22.19;47.88;96872.25;4908649;28;20226;-65
2023/06/16 10:28:36;;;;;;;4.57;4.27;;;;;;;22.34;46.58;96860.66;4951638;28;20296;-65
2023/06/16 10:31:04;;;;;;;5.70;4.47;;;;;;;22.32;47.16;96865.50;4935313;28;20214;-64
2023/06/16 10:33:51;;;;;;;4.90;4.50;;;;;;;22.79;47.39;96855.56;4928263;28;20214;-65
2023/06/16 10:36:22;;;;;;;4.43;4.13;;;;;;;23.19;45.28;96857.69;4940848;28;20202;-64
2023/06/16 10:38:56;;;;;;;5.40;4.90;;;;;;;23.00;44.84;96855.56;4950019;28;20464;-65
2023/06/16 10:41:24;;;;;;;7.87;4.70;;;;;;;22.54;46.06;96845.59;4936288;28;20211;-63
2023/06/16 10:43:53;;;;;;;4.90;4.50;;;;;;;22.38;46.50;96850.16;4927674;28;20224;-66
2023/06/16 10:46:21;;;;;;;4.63;4.33;;;;;;;22.89;46.41;96848.53;4933266;28;20248;-66
2023/06/16 10:49:11;;;;;;;4.70;4.30;;;;;;;23.35;44.95;96844.97;4935714;28;20245;-64
2023/06/16 10:51:40;;;;;;;5.90;4.57;;;;;;;23.23;43.29;96842.53;4919597;28;20254;-64
2023/06/16 10:54:08;;;;;;;4.93;4.53;;;;;;;22.84;43.96;96836.66;4951969;28;20297;-65
2023/06/16 10:57:03;;;;;;;4.87;4.20;;;;;;;22.57;44.48;96841.56;4919207;28;20218;-65
2023/06/16 10:59:55;;;;;;;5.17;4.83;;;;;;;22.83;45.34;96843.16;4947751;28;20291;-64
2023/06/16 11:02:23;;;;;;;4.60;4.20;;;;;;;22.55;46.80;96847.22;4937259;28;20210;-65
2023/06/16 11:05:13;;;;;;;5.10;4.60;;;;;;;22.53;46.17;96839.38;4935151;28;20365;-64
2023/06/16 11:07:41;;;;;;;4.23;4.00;;;;;;;22.35;45.84;96848.81;4917538;28;20332;-66
2023/06/16 11:10:09;;;;;;;4.77;4.47;;;;;;;22.62;46.86;96836.94;4959488;28;20293;-62
2023/06/16 11:12:38;;;;;;;4.90;4.17;;;;;;;23.00;44.99;96844.75;4920934;28;20261;-64
2023/06/16 11:15:08;;;;;;;4.70;4.40;;;;;;;22.90;44.77;96839.34;4942348;28;20206;-63
2023/06/16 11:17:39;;;;;;;5.30;4.80;;;;;;;22.87;45.20;96834.50;4932224;28;20852;-66
2023/06/16 11:20:09;;;;;;;4.50;4.27;;;;;;;22.77;44.83;96830.72;4940698;28;20301;-63
2023/06/16 11:22:37;;;;;;;4.60;4.30;;;;;;;22.64;44.90;96829.38;4912479;28;20321;-64
2023/06/16 11:25:06;;;;;;;4.80;4.33;;;;;;;22.19;48.14;96841.75;4953393;28;20216;-62
2023/06/16 11:27:34;;;;;;;4.37;3.97;;;;;;;21.69;48.13;96844.88;4905503;28;20444;-64
2023/06/16 11:30:05;;;;;;;4.63;4.33;;;;;;;21.72;47.83;96838.13;4925875;28;20875;-64
2023/06/16 11:32:37;;;;;;;4.40;4.10;;;;;;;21.74;46.47;96834.09;4933726;28;20537;-65
2023/06/16 11:35:06;;;;;;;4.40;4.00;;;;;;;21.88;48.27;96836.28;4934430;28;20210;-64
2023/06/16 11:37:41;;;;;;;4.13;3.83;;;;;;;22.04;47.69;96831.75;4899830;28;20405;-63
2023/06/16 11:40:11;;;;;;;5.70;4.40;;;;;;;22.67;45.89;96830.75;4955285;28;20233;-65
2023/06/16 11:42:39;;;;;;;5.90;4.50;;;;;;;23.29;46.15;96825.25;4916712;28;20214;-65